Time;durP1;ratioP1;P1;durP2;ratioP2;P2;SDS_P1;SDS_P2;PMS_P1;PMS_P2;Temp;Humidity;BMP_temperature;BMP_pressure;BME280_temperature;BME280_humidity;BME280_pressure;Samples;Min_cycle;Max_cycle;Signal;HPM_P1;HPM_P2
2024/01/12 00:01:34;;;;;;;15.45;4.53;;;1.80;99.90;;;;;;5012972;28;20526;-88
2024/01/12 00:03:59;;;;;;;12.25;3.75;;;3.50;99.90;;;;;;4998073;28;20092;-89
2024/01/12 00:06:25;;;;;;;11.73;4.05;;;3.10;99.90;;;;;;4981469;28;20141;-89
2024/01/12 00:08:51;;;;;;;12.43;3.90;;;2.20;99.90;;;;;;4998146;28;20041;-88
2024/01/12 00:11:17;;;;;;;9.77;3.70;;;1.80;99.90;;;;;;5013411;28;20065;-88
2024/01/12 00:13:43;;;;;;;12.25;3.60;;;3.10;99.90;;;;;;5014322;28;20103;-89
2024/01/12 00:16:08;;;;;;;10.98;3.90;;;3.00;99.90;;;;;;5014279;28;20045;-89
2024/01/12 00:18:34;;;;;;;13.00;3.95;;;1.80;99.90;;;;;;5014558;28;20038;-88
2024/01/12 00:21:00;;;;;;;12.00;4.03;;;3.40;99.90;;;;;;4998061;28;20099;-89
2024/01/12 00:23:26;;;;;;;12.30;4.63;;;;;;;;;;4996012;28;20041;-88
2024/01/12 00:25:58;;;;;;;9.32;3.85;;;1.90;99.90;;;;;;5014178;28;20529;-88
2024/01/12 00:28:26;;;;;;;12.48;3.88;;;3.20;99.90;;;;;;5005451;28;20044;-88
2024/01/12 00:30:52;;;;;;;12.40;4.10;;;1.90;99.90;;;;;;5025927;28;20084;-89
2024/01/12 00:33:18;;;;;;;12.30;4.28;;;3.30;99.90;;;;;;5014123;28;20091;-88
2024/01/12 00:35:44;;;;;;;10.70;3.92;;;1.90;99.90;;;;;;5049403;28;20044;-89
2024/01/12 00:38:09;;;;;;;12.75;4.05;;;2.70;99.90;;;;;;5000168;28;20056;-87
2024/01/12 00:40:35;;;;;;;12.18;4.88;;;3.40;99.90;;;;;;5016220;28;20045;-88
2024/01/12 00:43:01;;;;;;;11.63;3.92;;;2.90;99.90;;;;;;5032209;28;20040;-88
2024/01/12 00:45:26;;;;;;;10.32;4.20;;;2.00;99.90;;;;;;5031042;28;20116;-88
2024/01/12 00:47:52;;;;;;;12.40;4.28;;;2.70;99.90;;;;;;5015748;28;20068;-89
2024/01/12 00:50:18;;;;;;;11.23;4.05;;;2.00;99.90;;;;;;5033115;28;20090;-89
2024/01/12 00:52:44;;;;;;;11.18;4.38;;;2.00;99.90;;;;;;5033419;28;20546;-88
2024/01/12 00:55:11;;;;;;;13.07;4.05;;;3.40;99.90;;;;;;5032398;28;20071;-89
2024/01/12 00:57:37;;;;;;;11.52;4.60;;;2.10;99.90;;;;;;5032713;28;20036;-89
2024/01/12 01:00:04;;;;;;;10.88;4.00;;;2.10;99.90;;;;;;5047236;28;20041;-88
2024/01/12 01:02:30;;;;;;;15.20;4.28;;;2.20;99.90;;;;;;5032395;28;20072;-89
2024/01/12 01:04:56;;;;;;;10.48;3.92;;;2.70;99.90;;;;;;5013367;28;20457;-89
2024/01/12 01:07:22;;;;;;;9.35;3.58;;;2.10;99.90;;;;;;5047789;28;20041;-89
2024/01/12 01:09:48;;;;;;;11.00;4.10;;;3.30;99.90;;;;;;5049631;28;20041;-88
2024/01/12 01:12:14;;;;;;;13.38;4.50;;;2.20;99.90;;;;;;5032810;28;20444;-87
2024/01/12 01:14:40;;;;;;;10.07;3.65;;;2.30;99.90;;;;;;5052119;28;20048;-88
2024/01/12 01:17:05;;;;;;;14.98;5.57;;;2.60;99.90;;;;;;5049073;28;20048;-88
2024/01/12 01:19:31;;;;;;;11.63;3.95;;;3.80;99.90;;;;;;5015611;28;20037;-88
2024/01/12 01:21:57;;;;;;;10.55;3.97;;;2.40;99.90;;;;;;5014726;28;20643;-87
2024/01/12 01:24:26;;;;;;;10.98;3.90;;;2.40;99.90;;;;;;5049412;28;20049;-89
2024/01/12 01:26:52;;;;;;;11.60;3.90;;;3.40;99.90;;;;;;5031098;28;20111;-87
2024/01/12 01:29:18;;;;;;;13.10;3.80;;;2.70;99.90;;;;;;5032418;28;20045;-88
2024/01/12 01:31:44;;;;;;;11.50;3.55;;;4.10;99.90;;;;;;5016126;28;20520;-88
2024/01/12 01:34:09;;;;;;;12.57;3.53;;;2.30;99.90;;;;;;4998464;28;20071;-88
2024/01/12 01:36:35;;;;;;;12.02;4.03;;;3.40;99.90;;;;;;5031891;28;20033;-87
2024/01/12 01:39:01;;;;;;;12.88;3.83;;;2.50;99.90;;;;;;5000119;28;20515;-87
2024/01/12 01:41:27;;;;;;;11.05;3.65;;;2.40;99.90;;;;;;5030972;28;20509;-88
2024/01/12 01:43:52;;;;;;;11.85;4.03;;;2.20;99.90;;;;;;5032506;28;20528;-88
2024/01/12 01:46:19;;;;;;;10.63;3.40;;;4.00;99.90;;;;;;5031272;28;20048;-88
2024/01/12 01:48:45;;;;;;;11.88;3.80;;;2.50;99.90;;;;;;5048331;28;20053;-88
2024/01/12 01:51:11;;;;;;;9.52;3.88;;;3.90;99.90;;;;;;5014514;28;20075;-87
2024/01/12 01:53:38;;;;;;;11.02;3.47;;;3.70;99.90;;;;;;5053232;28;20029;-88
2024/01/12 01:56:04;;;;;;;11.10;3.63;;;4.70;99.90;;;;;;5012280;28;20041;-89
2024/01/12 01:58:30;;;;;;;13.07;3.80;;;2.40;99.90;;;;;;5020269;28;20110;-88
2024/01/12 02:00:56;;;;;;;13.80;4.00;;;3.70;99.90;;;;;;5015880;28;20041;-88
2024/01/12 02:03:22;;;;;;;11.52;3.70;;;4.00;99.90;;;;;;4997195;28;20571;-88
2024/01/12 02:05:49;;;;;;;15.57;3.83;;;4.40;99.90;;;;;;5032632;28;20041;-87
2024/01/12 02:08:15;;;;;;;12.35;3.60;;;2.70;99.90;;;;;;5016108;28;20037;-88
2024/01/12 02:10:42;;;;;;;10.85;3.90;;;3.80;99.90;;;;;;5014964;28;20113;-89
2024/01/12 02:13:08;;;;;;;12.07;4.15;;;2.90;99.90;;;;;;5013362;28;20509;-89
2024/01/12 02:15:33;;;;;;;11.35;4.00;;;2.50;99.90;;;;;;5031984;28;20044;-88
2024/01/12 02:17:59;;;;;;;11.30;4.28;;;3.60;99.90;;;;;;4998922;28;20036;-88
2024/01/12 02:20:25;;;;;;;14.27;3.97;;;3.10;99.90;;;;;;4998578;28;20037;-88
2024/01/12 02:22:50;;;;;;;10.02;4.15;;;3.80;99.90;;;;;;5015145;28;20452;-88
2024/01/12 02:25:17;;;;;;;10.60;3.83;;;3.20;99.90;;;;;;5013150;28;20044;-88
2024/01/12 02:27:43;;;;;;;11.05;4.28;;;3.90;99.90;;;;;;5014242;28;20109;-88
2024/01/12 02:30:09;;;;;;;10.57;4.32;;;2.60;99.90;;;;;;5046521;28;20036;-87
2024/01/12 02:32:35;;;;;;;10.85;4.35;;;2.50;99.90;;;;;;5014843;28;20072;-87
2024/01/12 02:35:01;;;;;;;11.77;4.22;;;2.50;99.90;;;;;;5010835;28;20093;-87
2024/01/12 02:37:26;;;;;;;11.75;4.22;;;2.70;99.90;;;;;;5030514;28;20051;-87
2024/01/12 02:39:52;;;;;;;13.25;4.28;;;3.70;99.90;;;;;;5013952;28;20033;-88
2024/01/12 02:42:18;;;;;;;10.80;3.70;;;2.80;99.90;;;;;;5002436;28;20447;-87
2024/01/12 02:44:43;;;;;;;12.30;4.22;;;3.50;99.90;;;;;;5024179;28;20073;-88
2024/01/12 02:47:12;;;;;;;11.90;4.03;;;3.20;99.90;;;;;;5023058;28;20040;-87
2024/01/12 02:49:37;;;;;;;10.07;3.75;;;2.50;99.90;;;;;;5016773;28;20033;-87
2024/01/12 02:52:03;;;;;;;12.20;4.18;;;2.40;99.90;;;;;;5004278;28;20505;-87
2024/01/12 02:54:29;;;;;;;12.02;4.18;;;2.40;99.90;;;;;;5019808;28;20561;-87
2024/01/12 02:56:55;;;;;;;11.13;4.25;;;2.40;99.90;;;;;;5051203;28;20036;-87
2024/01/12 02:59:20;;;;;;;11.25;4.55;;;2.90;99.90;;;;;;5023223;28;20037;-86
2024/01/12 03:01:46;;;;;;;11.57;4.28;;;2.30;99.90;;;;;;5024567;28;20045;-87
2024/01/12 03:04:12;;;;;;;10.90;4.05;;;2.10;99.90;;;;;;5028510;28;20045;-87
2024/01/12 03:06:38;;;;;;;15.18;4.45;;;2.20;99.90;;;;;;5026133;28;20432;-88
2024/01/12 03:09:03;;;;;;;9.88;3.88;;;2.70;99.90;;;;;;5023286;28;20562;-87
2024/01/12 03:11:29;;;;;;;12.95;4.22;;;2.10;99.90;;;;;;5038755;28;20079;-87
2024/01/12 03:13:55;;;;;;;9.98;4.35;;;3.30;99.90;;;;;;5023006;28;20074;-87
2024/01/12 03:16:21;;;;;;;10.02;4.13;;;2.20;99.90;;;;;;5020368;28;20037;-87
2024/01/12 03:18:48;;;;;;;11.20;4.07;;;2.30;99.90;;;;;;5018703;28;20109;-87
2024/01/12 03:21:15;;;;;;;9.55;3.80;;;2.20;99.90;;;;;;5029188;28;20049;-87
2024/01/12 03:23:41;;;;;;;11.70;4.25;;;3.70;99.90;;;;;;5038157;28;20044;-87
2024/01/12 03:26:07;;;;;;;11.80;3.90;;;2.60;99.90;;;;;;5050901;28;20037;-88
2024/01/12 03:28:34;;;;;;;10.65;4.20;;;3.30;99.90;;;;;;4999002;28;20039;-87
2024/01/12 03:31:03;;;;;;;11.68;4.50;;;3.50;99.90;;;;;;5047093;28;20068;-87
2024/01/12 03:33:29;;;;;;;11.60;4.28;;;3.70;99.90;;;;;;5047923;28;20032;-87
2024/01/12 03:35:54;;;;;;;11.75;4.03;;;3.60;99.90;;;;;;5037523;28;20045;-87
2024/01/12 03:38:20;;;;;;;10.13;4.13;;;2.20;99.90;;;;;;5035667;28;20043;-87
2024/01/12 03:40:46;;;;;;;11.85;4.18;;;3.40;99.90;;;;;;5021296;28;20471;-87
2024/01/12 03:43:11;;;;;;;11.85;3.72;;;2.40;99.90;;;;;;5002738;28;20072;-87
2024/01/12 03:45:37;;;;;;;10.48;3.70;;;2.50;99.90;;;;;;5002543;28;20067;-87
2024/01/12 03:48:03;;;;;;;11.80;4.07;;;2.40;99.90;;;;;;5021862;28;20085;-88
2024/01/12 03:50:28;;;;;;;12.20;4.00;;;2.60;99.90;;;;;;5053554;28;20519;-88
2024/01/12 03:52:54;;;;;;;11.95;4.00;;;2.60;99.90;;;;;;5017189;28;20052;-88
2024/01/12 03:55:20;;;;;;;10.85;3.50;;;3.40;99.90;;;;;;5036901;28;20041;-86
2024/01/12 03:57:45;;;;;;;10.73;3.88;;;2.60;99.90;;;;;;5001644;28;20045;-88
2024/01/12 04:00:11;;;;;;;12.40;3.75;;;2.50;99.90;;;;;;5019863;28;20566;-88
2024/01/12 04:02:37;;;;;;;13.55;4.32;;;2.50;99.90;;;;;;5023827;28;20040;-87
2024/01/12 04:05:03;;;;;;;13.25;4.40;;;3.20;99.90;;;;;;5027228;28;20102;-87
2024/01/12 04:07:29;;;;;;;10.85;4.00;;;2.60;99.90;;;;;;5023099;28;20127;-87
2024/01/12 04:09:55;;;;;;;13.63;3.70;;;4.00;99.90;;;;;;5022550;28;20311;-87
2024/01/12 04:12:21;;;;;;;11.93;3.45;;;;;;;;;;5021315;28;20064;-87
2024/01/12 04:14:47;;;;;;;11.05;3.88;;;2.50;99.90;;;;;;5035192;28;20102;-86
2024/01/12 04:17:13;;;;;;;13.18;3.80;;;2.60;99.90;;;;;;5034322;28;20045;-86
2024/01/12 04:19:38;;;;;;;11.95;4.43;;;3.90;99.90;;;;;;5056423;28;20033;-86
2024/01/12 04:22:04;;;;;;;11.65;4.25;;;3.90;99.90;;;;;;5044245;28;20046;-87
2024/01/12 04:24:30;;;;;;;10.80;4.18;;;3.10;99.90;;;;;;5044093;28;20045;-87
2024/01/12 04:26:57;;;;;;;14.93;4.30;;;2.50;99.90;;;;;;5040944;28;20408;-87
2024/01/12 04:29:22;;;;;;;14.68;4.45;;;2.40;99.90;;;;;;5046853;28;20037;-87
2024/01/12 04:31:48;;;;;;;13.82;4.45;;;2.50;99.90;;;;;;5016546;28;20044;-87
2024/01/12 04:34:15;;;;;;;12.13;3.88;;;3.90;99.90;;;;;;5032744;28;20041;-86
2024/01/12 04:36:41;;;;;;;10.57;3.65;;;2.50;99.90;;;;;;5033771;28;20037;-87
2024/01/12 04:39:07;;;;;;;11.95;4.00;;;2.60;99.90;;;;;;5011302;28;20048;-87
2024/01/12 04:41:32;;;;;;;12.23;4.20;;;2.60;99.90;;;;;;5009586;28;20049;-87
2024/01/12 04:43:58;;;;;;;13.68;4.07;;;2.60;99.90;;;;;;4998155;28;20522;-87
2024/01/12 04:46:24;;;;;;;14.70;4.20;;;3.60;99.90;;;;;;5032301;28;20036;-86
2024/01/12 04:48:49;;;;;;;12.10;4.20;;;2.50;99.90;;;;;;5016782;28;20041;-87
2024/01/12 04:51:15;;;;;;;11.18;4.03;;;2.50;99.90;;;;;;5016922;28;20468;-87
2024/01/12 04:53:41;;;;;;;11.20;3.67;;;2.60;99.90;;;;;;4999878;28;20268;-87
2024/01/12 04:56:06;;;;;;;11.20;4.00;;;3.90;99.90;;;;;;5037969;28;20103;-87
2024/01/12 04:58:32;;;;;;;10.80;3.95;;;3.60;99.90;;;;;;5032877;28;20045;-87
2024/01/12 05:00:58;;;;;;;11.98;4.18;;;4.30;99.90;;;;;;5016708;28;20041;-87
2024/01/12 05:03:24;;;;;;;15.07;4.03;;;4.70;99.90;;;;;;5016526;28;20110;-88
2024/01/12 05:05:49;;;;;;;10.75;4.00;;;3.90;99.90;;;;;;5012523;28;20076;-88
2024/01/12 05:08:15;;;;;;;12.15;3.88;;;2.60;99.90;;;;;;5030366;28;20041;-87
2024/01/12 05:10:41;;;;;;;9.85;4.00;;;4.00;99.90;;;;;;5032933;28;20061;-88
2024/01/12 05:13:07;;;;;;;12.88;4.60;;;2.40;99.90;;;;;;5032326;28;20045;-87
2024/01/12 05:15:32;;;;;;;11.70;4.10;;;2.40;99.90;;;;;;5032568;28;20132;-87
2024/01/12 05:17:58;;;;;;;15.60;4.07;;;2.40;99.90;;;;;;5000326;28;20041;-87
2024/01/12 05:20:25;;;;;;;12.93;4.20;;;2.90;99.90;;;;;;4999656;28;20099;-87
2024/01/12 05:22:50;;;;;;;12.90;4.78;;;2.40;99.90;;;;;;5016396;28;20041;-87
2024/01/12 05:25:16;;;;;;;14.77;4.15;;;2.20;99.90;;;;;;5031691;28;20048;-87
2024/01/12 05:27:42;;;;;;;12.55;3.88;;;2.40;99.90;;;;;;5015963;28;20044;-87
2024/01/12 05:30:08;;;;;;;17.20;4.15;;;3.70;99.90;;;;;;5031465;28;20033;-87
2024/01/12 05:32:33;;;;;;;13.52;4.07;;;2.30;99.90;;;;;;5025427;28;20029;-87
2024/01/12 05:34:59;;;;;;;14.45;4.55;;;3.40;99.90;;;;;;5013096;28;20041;-87
2024/01/12 05:37:25;;;;;;;14.77;4.40;;;2.20;99.90;;;;;;4999787;28;20090;-87
2024/01/12 05:39:51;;;;;;;9.93;3.55;;;2.30;99.90;;;;;;5030306;28;20497;-87
2024/01/12 05:42:16;;;;;;;13.40;4.45;;;3.20;99.90;;;;;;5016120;28;20132;-88
2024/01/12 05:44:42;;;;;;;13.73;4.10;;;2.20;99.90;;;;;;5005492;28;20077;-88
2024/01/12 05:47:08;;;;;;;14.57;4.20;;;3.50;99.90;;;;;;5030640;28;20083;-88
2024/01/12 05:49:36;;;;;;;17.17;4.65;;;1.90;99.90;;;;;;5027500;28;20037;-88
2024/01/12 05:52:03;;;;;;;14.32;4.00;;;2.10;99.90;;;;;;5039787;28;20036;-88
2024/01/12 05:54:28;;;;;;;9.90;4.00;;;2.00;99.90;;;;;;5007688;28;20474;-88
2024/01/12 05:56:54;;;;;;;12.68;4.32;;;3.20;99.90;;;;;;5040023;28;20051;-88
2024/01/12 05:59:20;;;;;;;14.63;4.47;;;2.10;99.90;;;;;;5009440;28;20079;-87
2024/01/12 06:01:46;;;;;;;13.20;4.75;;;2.10;99.90;;;;;;5025417;28;20095;-87
2024/01/12 06:04:12;;;;;;;11.68;4.25;;;2.20;99.90;;;;;;5019180;28;20076;-87
2024/01/12 06:06:40;;;;;;;13.80;4.45;;;2.20;99.90;;;;;;5019588;28;20040;-88
2024/01/12 06:09:06;;;;;;;17.23;4.38;;;3.40;99.90;;;;;;5041041;28;20044;-87
2024/01/12 06:11:31;;;;;;;15.68;4.20;;;3.50;99.90;;;;;;5026120;28;20045;-88
2024/01/12 06:14:05;;;;;;;15.00;4.22;;;2.20;99.90;;;;;;5042479;28;20112;-87
2024/01/12 06:16:30;;;;;;;13.07;4.15;;;2.10;99.90;;;;;;5025347;28;20271;-87
2024/01/12 06:18:56;;;;;;;15.25;4.60;;;2.20;99.90;;;;;;5001975;28;20305;-87
2024/01/12 06:21:26;;;;;;;13.48;4.60;;;2.00;99.90;;;;;;5033285;28;20538;-87
2024/01/12 06:23:52;;;;;;;10.75;4.10;;;2.70;99.90;;;;;;5031282;28;20052;-87
2024/01/12 06:26:18;;;;;;;13.98;4.22;;;2.10;99.90;;;;;;5033508;28;20094;-87
2024/01/12 06:28:43;;;;;;;17.23;4.93;;;2.40;99.90;;;;;;5034027;28;20045;-87
2024/01/12 06:31:09;;;;;;;15.48;4.78;;;2.10;99.90;;;;;;5010969;28;20670;-87
2024/01/12 06:33:35;;;;;;;13.80;5.07;;;3.10;99.90;;;;;;5014805;28;20041;-87
2024/01/12 06:36:07;;;;;;;14.95;4.63;;;3.70;99.90;;;;;;5008026;28;20477;-87
2024/01/12 06:38:33;;;;;;;14.30;4.35;;;2.10;99.90;;;;;;5041054;28;20040;-87
2024/01/12 06:40:58;;;;;;;15.02;4.53;;;4.00;99.90;;;;;;5037735;28;20489;-88
2024/01/12 06:43:24;;;;;;;12.70;4.25;;;2.90;99.90;;;;;;5016080;28;20036;-88
2024/01/12 06:45:49;;;;;;;13.32;4.40;;;2.20;99.90;;;;;;5020147;28;20461;-88
2024/01/12 06:48:15;;;;;;;13.75;4.50;;;3.00;99.90;;;;;;5020937;28;20494;-88
2024/01/12 06:50:41;;;;;;;17.75;4.22;;;2.20;99.90;;;;;;5018913;28;20040;-88
2024/01/12 06:53:09;;;;;;;10.75;3.78;;;2.30;99.90;;;;;;5012664;28;20486;-87
2024/01/12 06:55:36;;;;;;;15.15;4.40;;;3.50;99.90;;;;;;5015603;28;20464;-87
2024/01/12 06:58:01;;;;;;;17.85;4.57;;;2.30;99.90;;;;;;5031151;28;20094;-87
2024/01/12 07:00:27;;;;;;;13.20;4.03;;;2.40;99.90;;;;;;5027646;28;20045;-87
2024/01/12 07:02:53;;;;;;;13.68;4.00;;;3.00;99.90;;;;;;5011819;28;20485;-88
2024/01/12 07:05:18;;;;;;;12.98;4.22;;;3.30;99.90;;;;;;5016697;28;20036;-87
2024/01/12 07:07:44;;;;;;;13.77;4.25;;;2.30;99.90;;;;;;5048507;28;20048;-89
2024/01/12 07:10:13;;;;;;;14.45;3.70;;;3.20;99.90;;;;;;5043117;28;20041;-87
2024/01/12 07:12:39;;;;;;;13.25;3.97;;;2.40;99.90;;;;;;5040164;28;20094;-87
2024/01/12 07:15:06;;;;;;;12.30;3.92;;;3.90;99.90;;;;;;5027229;28;20036;-88
2024/01/12 07:17:32;;;;;;;12.80;4.07;;;2.40;99.90;;;;;;5022298;28;20037;-86
2024/01/12 07:19:57;;;;;;;15.20;4.30;;;2.50;99.90;;;;;;5036296;28;20059;-87
2024/01/12 07:22:23;;;;;;;15.88;4.80;;;2.60;99.90;;;;;;5033140;28;20076;-88
2024/01/12 07:24:49;;;;;;;12.88;4.20;;;3.20;99.90;;;;;;5009564;28;20083;-89
2024/01/12 07:27:15;;;;;;;16.60;4.00;;;2.50;99.90;;;;;;5009671;28;20043;-87
2024/01/12 07:29:40;;;;;;;13.43;4.03;;;2.60;99.90;;;;;;5022110;28;20036;-87
2024/01/12 07:32:06;;;;;;;17.85;3.78;;;2.50;99.90;;;;;;5017039;28;20059;-88
2024/01/12 07:34:32;;;;;;;13.70;3.63;;;2.70;99.90;;;;;;5021601;28;20033;-87
2024/01/12 07:36:58;;;;;;;12.13;3.55;;;2.60;99.90;;;;;;5051765;28;20047;-90
2024/01/12 07:39:24;;;;;;;15.68;3.58;;;4.20;99.90;;;;;;5040556;28;20037;-87
2024/01/12 07:41:50;;;;;;;15.55;3.83;;;4.20;99.90;;;;;;5024022;28;20070;-87
2024/01/12 07:44:15;;;;;;;15.85;3.35;;;2.80;99.90;;;;;;5037339;28;20133;-88
2024/01/12 07:46:43;;;;;;;16.15;3.75;;;3.90;99.90;;;;;;5039188;28;20044;-86
2024/01/12 07:49:08;;;;;;;17.60;3.63;;;3.60;99.90;;;;;;5029415;28;20102;-87
2024/01/12 07:51:34;;;;;;;13.02;3.10;;;4.50;99.90;;;;;;5021476;28;20774;-88
2024/01/12 07:54:00;;;;;;;11.20;3.35;;;2.70;99.90;;;;;;5050161;28;20033;-89
2024/01/12 07:56:26;;;;;;;15.63;5.68;;;4.10;99.90;;;;;;5030966;28;20142;-87
2024/01/12 07:58:52;;;;;;;14.90;3.17;;;2.80;99.90;;;;;;5020697;28;20041;-87
2024/01/12 08:01:17;;;;;;;16.27;3.83;;;2.70;99.90;;;;;;5044927;28;20112;-87
2024/01/12 08:03:44;;;;;;;13.15;3.13;;;2.80;99.90;;;;;;5028531;28;20037;-85
2024/01/12 08:06:10;;;;;;;14.32;3.20;;;4.30;99.90;;;;;;5046984;28;20265;-88
2024/01/12 08:08:37;;;;;;;16.30;4.10;;;4.10;99.90;;;;;;5036861;28;20516;-87
2024/01/12 08:11:03;;;;;;;14.52;3.67;;;2.90;99.90;;;;;;5015701;28;20054;-89
2024/01/12 08:13:29;;;;;;;13.50;3.20;;;2.90;99.90;;;;;;5047455;28;20079;-89
2024/01/12 08:15:54;;;;;;;14.77;3.63;;;2.80;99.90;;;;;;5017013;28;20490;-90
2024/01/12 08:18:20;;;;;;;14.52;3.35;;;2.90;99.90;;;;;;5037837;28;20127;-89
2024/01/12 08:20:46;;;;;;;15.43;4.30;;;3.10;99.90;;;;;;5000816;28;20106;-87
2024/01/12 08:23:12;;;;;;;17.17;3.75;;;3.00;99.90;;;;;;5014760;28;20041;-87
2024/01/12 08:25:38;;;;;;;15.93;3.38;;;3.70;99.90;;;;;;5039639;28;20078;-88
2024/01/12 08:28:04;;;;;;;17.88;4.32;;;3.60;99.90;;;;;;5039030;28;20119;-87
2024/01/12 08:30:29;;;;;;;15.02;3.65;;;3.10;99.90;;;;;;5049351;28;20517;-86
2024/01/12 08:32:55;;;;;;;16.00;3.45;;;4.10;99.90;;;;;;5033975;28;20033;-87
2024/01/12 08:35:21;;;;;;;14.52;3.50;;;3.10;99.90;;;;;;5020319;28;20095;-88
2024/01/12 08:37:47;;;;;;;12.48;3.42;;;4.30;99.90;;;;;;5018388;28;20064;-89
2024/01/12 08:40:12;;;;;;;13.15;3.72;;;3.00;99.90;;;;;;5012265;28;20036;-87
2024/01/12 08:42:39;;;;;;;14.32;3.50;;;3.00;99.90;;;;;;5025908;28;20494;-86
2024/01/12 08:45:05;;;;;;;14.50;3.55;;;3.40;99.90;;;;;;5002491;28;20098;-86
2024/01/12 08:47:31;;;;;;;16.00;2.85;;;3.30;99.90;;;;;;5049184;28;20041;-87
2024/01/12 08:49:58;;;;;;;15.55;3.30;;;3.30;99.90;;;;;;5037439;28;20289;-89
2024/01/12 08:52:24;;;;;;;11.48;2.65;;;3.30;99.90;;;;;;5040027;28;20654;-86
2024/01/12 08:54:49;;;;;;;13.93;3.30;;;3.60;99.90;;;;;;5035113;28;20075;-87
2024/01/12 08:57:15;;;;;;;15.80;3.47;;;5.40;99.90;;;;;;5016684;28;20115;-87
2024/01/12 08:59:41;;;;;;;14.68;2.72;;;;;;;;;;5033509;28;20164;-86
2024/01/12 09:02:07;;;;;;;13.63;3.28;;;3.80;99.90;;;;;;5016026;28;20465;-86
2024/01/12 09:04:34;;;;;;;11.38;2.38;;;5.30;99.90;;;;;;5040998;28;20055;-88
2024/01/12 09:07:00;;;;;;;13.63;3.20;;;3.80;99.90;;;;;;5037197;28;20084;-88
2024/01/12 09:09:26;;;;;;;15.20;3.15;;;4.00;99.90;;;;;;5015269;28;20072;-88
2024/01/12 09:11:52;;;;;;;15.02;2.70;;;4.80;99.90;;;;;;5008548;28;20061;-88
2024/01/12 09:14:18;;;;;;;11.95;3.13;;;4.60;99.90;;;;;;5031489;28;20141;-87
2024/01/12 09:16:43;;;;;;;12.68;2.60;;;3.90;99.90;;;;;;5019963;28;20478;-89
2024/01/12 09:19:09;;;;;;;13.90;3.72;;;4.00;99.90;;;;;;5014538;28;20037;-89
2024/01/12 09:21:35;;;;;;;16.50;3.28;;;4.00;99.90;;;;;;5015358;28;20036;-91
2024/01/12 09:24:01;;;;;;;11.73;2.95;;;4.00;99.90;;;;;;5018232;28;20130;-90
2024/01/12 09:26:26;;;;;;;11.40;3.08;;;4.00;99.90;;;;;;5038094;28;20036;-88
2024/01/12 09:28:52;;;;;;;14.80;3.72;;;5.80;99.90;;;;;;5039084;28;20126;-88
2024/01/12 09:31:18;;;;;;;10.45;2.53;;;5.50;99.90;;;;;;5016462;28;20183;-88
2024/01/12 09:33:43;;;;;;;15.32;2.97;;;4.10;99.90;;;;;;5019925;28;20036;-89
2024/01/12 09:36:10;;;;;;;13.80;3.50;;;4.10;99.90;;;;;;5000974;28;20045;-87
2024/01/12 09:38:36;;;;;;;16.08;3.78;;;3.90;99.90;;;;;;5040029;28;20037;-88
2024/01/12 09:41:04;;;;;;;14.52;3.00;;;5.50;99.90;;;;;;5017017;28;20512;-88
2024/01/12 09:43:35;;;;;;;12.70;3.05;;;4.00;99.90;;;;;;5033801;28;20481;-91
2024/01/12 09:46:06;;;;;;;12.60;2.90;;;5.50;99.90;;;;;;5034969;28;20040;-90
2024/01/12 09:48:33;;;;;;;14.82;3.15;;;5.70;99.90;;;;;;5039098;28;20036;-89
2024/01/12 09:51:00;;;;;;;12.07;2.90;;;4.20;99.90;;;;;;5034586;28;20036;-89
2024/01/12 09:53:26;;;;;;;10.98;2.63;;;4.10;99.90;;;;;;5051874;28;20043;-88
2024/01/12 09:55:52;;;;;;;14.50;3.15;;;4.20;99.90;;;;;;5001854;28;20036;-88
2024/01/12 09:58:20;;;;;;;12.98;3.05;;;4.20;99.90;;;;;;5012657;28;20095;-88
2024/01/12 10:00:49;;;;;;;13.07;2.80;;;4.20;99.90;;;;;;5047896;28;20048;-88
2024/01/12 10:03:17;;;;;;;11.15;2.75;;;5.30;99.90;;;;;;5030645;28;20389;-87
2024/01/12 10:05:44;;;;;;;13.55;3.60;;;6.10;99.90;;;;;;5033553;28;20049;-89
2024/01/12 10:08:09;;;;;;;20.23;4.03;;;4.00;99.90;;;;;;5035904;28;20053;-88
2024/01/12 10:10:35;;;;;;;15.65;3.72;;;4.20;99.90;;;;;;5045765;28;20028;-89
2024/01/12 10:13:02;;;;;;;15.25;2.97;;;5.70;99.90;;;;;;5013059;28;20049;-88
2024/01/12 10:15:29;;;;;;;15.40;3.38;;;4.10;99.90;;;;;;5045215;28;20055;-89
2024/01/12 10:17:56;;;;;;;13.77;2.92;;;4.40;99.90;;;;;;5019769;28;20048;-88
2024/01/12 10:20:22;;;;;;;13.10;3.40;;;4.30;99.90;;;;;;5032755;28;20044;-88
2024/01/12 10:22:58;;;;;;;14.27;3.22;;;4.40;99.90;;;;;;5019283;28;20047;-88
2024/01/12 10:25:24;;;;;;;14.85;3.65;;;4.30;99.90;;;;;;5029986;28;20184;-89
2024/01/12 10:27:57;;;;;;;13.48;3.08;;;4.70;99.90;;;;;;5031434;28;20041;-91
2024/01/12 10:30:23;;;;;;;13.18;3.08;;;5.10;99.90;;;;;;5023605;28;20047;-89
2024/01/12 10:32:52;;;;;;;14.70;3.45;;;4.40;99.90;;;;;;5043420;28;20043;-89
2024/01/12 10:35:20;;;;;;;14.82;3.08;;;4.40;99.90;;;;;;5054431;28;20561;-89
2024/01/12 10:37:47;;;;;;;10.85;2.85;;;4.70;99.90;;;;;;5063382;28;20112;-90
2024/01/12 10:40:16;;;;;;;11.43;2.75;;;4.50;99.90;;;;;;5052193;28;20570;-88
2024/01/12 10:42:50;;;;;;;11.77;2.53;;;4.40;99.90;;;;;;5031100;28;20059;-88
2024/01/12 10:45:25;;;;;;;9.82;2.42;;;4.40;99.90;;;;;;5032729;28;20037;-89
2024/01/12 10:48:06;;;;;;;14.98;3.05;;;6.10;99.90;;;;;;5041528;28;20094;-88
2024/01/12 10:50:40;;;;;;;12.68;2.80;;;4.50;99.90;;;;;;5020354;28;20035;-89
2024/01/12 10:53:22;;;;;;;14.65;2.58;;;6.60;99.90;;;;;;5030589;28;20033;-91
2024/01/12 10:55:54;;;;;;;12.30;2.85;;;4.70;99.90;;;;;;5046645;28;20067;-89
2024/01/12 10:58:20;;;;;;;15.43;3.05;;;4.30;99.90;;;;;;5037878;28;20037;-88
2024/01/12 11:00:47;;;;;;;13.70;2.70;;;4.40;99.90;;;;;;5038778;28;20036;-87
2024/01/12 11:03:15;;;;;;;13.25;2.83;;;5.70;99.90;;;;;;5020958;28;20402;-87
2024/01/12 11:05:43;;;;;;;11.32;2.38;;;4.30;99.90;;;;;;5037125;28;20470;-88
2024/01/12 11:08:11;;;;;;;12.63;2.80;;;5.60;99.90;;;;;;5044084;28;20041;-88
2024/01/12 11:10:45;;;;;;;15.07;3.00;;;6.00;99.90;;;;;;5034723;28;20123;-88
2024/01/12 11:13:14;;;;;;;13.05;3.15;;;4.50;99.90;;;;;;5037037;28;20076;-88
2024/01/12 11:15:40;;;;;;;11.82;3.15;;;4.50;99.90;;;;;;5018602;28;20037;-88
2024/01/12 11:18:07;;;;;;;13.25;3.40;;;6.00;99.90;;;;;;5017848;28;20037;-88
2024/01/12 11:20:33;;;;;;;14.27;2.97;;;4.40;99.90;;;;;;5054959;28;20040;-88
2024/01/12 11:22:59;;;;;;;12.55;2.97;;;5.70;99.90;;;;;;5040081;28;20480;-87
2024/01/12 11:25:25;;;;;;;16.60;2.97;;;5.40;99.90;;;;;;5041994;28;20040;-88
2024/01/12 11:27:52;;;;;;;14.50;3.00;;;4.60;99.90;;;;;;5048771;28;20184;-88
2024/01/12 11:30:19;;;;;;;13.25;3.15;;;4.70;99.90;;;;;;5033281;28;20067;-88
2024/01/12 11:32:46;;;;;;;16.35;2.97;;;4.60;99.90;;;;;;5017005;28;20071;-88
2024/01/12 11:35:17;;;;;;;18.73;4.60;;;6.20;99.90;;;;;;5053409;28;20136;-88
2024/01/12 11:37:44;;;;;;;11.68;2.95;;;5.30;99.90;;;;;;5029349;28;20084;-88
2024/01/12 11:40:15;;;;;;;13.82;2.60;;;4.70;99.90;;;;;;5038043;28;20033;-88
2024/01/12 11:42:42;;;;;;;14.55;2.97;;;4.60;99.90;;;;;;5031238;28;20041;-89
2024/01/12 11:45:13;;;;;;;18.60;3.83;;;4.70;99.90;;;;;;5029372;28;20406;-88
2024/01/12 11:47:42;;;;;;;13.30;2.90;;;5.30;99.90;;;;;;5037987;28;20478;-88
2024/01/12 11:50:10;;;;;;;15.15;3.25;;;4.70;99.90;;;;;;5033992;28;20497;-88
2024/01/12 11:52:36;;;;;;;12.85;3.08;;;4.70;99.90;;;;;;5011856;28;21834;-87
2024/01/12 11:55:09;;;;;;;15.23;3.03;;;4.80;99.90;;;;;;4999399;28;20293;-88
2024/01/12 11:57:38;;;;;;;15.73;4.60;;;4.80;99.90;;;;;;5040534;28;20042;-89
2024/01/12 12:00:06;;;;;;;16.58;3.75;;;4.70;99.90;;;;;;5052373;28;20040;-89
2024/01/12 12:02:35;;;;;;;14.98;3.00;;;4.80;99.90;;;;;;5031065;28;20494;-88
2024/01/12 12:05:07;;;;;;;16.98;3.35;;;5.50;99.90;;;;;;5027762;28;20493;-87
2024/01/12 12:07:36;;;;;;;14.17;3.00;;;4.80;99.90;;;;;;5032317;28;20327;-87
2024/01/12 12:10:02;;;;;;;18.83;3.58;;;4.80;99.90;;;;;;5016183;28;20294;-87
2024/01/12 12:12:28;;;;;;;13.07;2.90;;;4.80;99.90;;;;;;5031006;28;20060;-89
2024/01/12 12:15:12;;;;;;;18.77;3.60;;;4.70;99.90;;;;;;5047353;28;20042;-86
2024/01/12 12:17:41;;;;;;;13.35;3.78;;;4.70;99.90;;;;;;5054440;28;20071;-87
2024/01/12 12:20:11;;;;;;;12.98;2.97;;;4.90;99.90;;;;;;5051507;28;20040;-86
2024/01/12 12:22:40;;;;;;;13.57;3.08;;;4.90;99.90;;;;;;5050778;28;20086;-89
2024/01/12 12:25:10;;;;;;;19.70;3.65;;;4.90;99.90;;;;;;5016918;28;20501;-90
2024/01/12 12:27:46;;;;;;;14.35;3.30;;;6.20;99.90;;;;;;5031125;28;20486;-87
2024/01/12 12:30:14;;;;;;;13.25;3.13;;;5.00;99.90;;;;;;5053908;28;20041;-88
2024/01/12 12:32:41;;;;;;;18.63;3.92;;;5.00;99.90;;;;;;5040022;28;20037;-89
2024/01/12 12:35:22;;;;;;;13.05;2.72;;;6.80;99.90;;;;;;5016994;28;20270;-93
2024/01/12 12:37:49;;;;;;;16.67;3.08;;;4.90;99.90;;;;;;5013971;28;20394;-87
2024/01/12 12:40:16;;;;;;;15.20;3.30;;;5.90;99.90;;;;;;5017677;28;20040;-86
2024/01/12 12:42:44;;;;;;;18.27;3.63;;;4.80;99.90;;;;;;5038248;28;20494;-88
2024/01/12 12:45:10;;;;;;;12.50;3.30;;;4.90;99.90;;;;;;5050703;28;20140;-87